createdAt,value
2023-01-20T00:01:43.137Z,-3.01
2023-01-20T00:04:10.013Z,-2.81
2023-01-20T00:06:36.595Z,-2.80
2023-01-20T00:09:04.908Z,-2.83
2023-01-20T00:11:31.846Z,-2.82
2023-01-20T00:14:01.229Z,-2.90
2023-01-20T00:16:31.547Z,-2.90
2023-01-20T00:18:58.342Z,-2.88
2023-01-20T00:21:25.026Z,-3.15
2023-01-20T00:23:51.856Z,-3.13
2023-01-20T00:26:20.530Z,-2.90
2023-01-20T00:28:47.811Z,-2.90
2023-01-20T00:31:21.331Z,-3.05
2023-01-20T00:33:49.632Z,-3.07
2023-01-20T00:36:18.001Z,-2.88
2023-01-20T00:38:45.104Z,-2.88
2023-01-20T00:41:12.181Z,-2.86
2023-01-20T00:43:39.430Z,-2.88
2023-01-20T00:46:06.769Z,-2.88
2023-01-20T00:48:34.139Z,-2.84
2023-01-20T00:51:01.263Z,-2.85
2023-01-20T00:53:28.109Z,-2.93
2023-01-20T00:55:54.895Z,-2.84
2023-01-20T00:58:21.687Z,-3.12
2023-01-20T01:00:49.996Z,-2.99
2023-01-20T01:03:17.036Z,-2.94
2023-01-20T01:05:44.697Z,-2.80
2023-01-20T01:08:11.807Z,-2.92
2023-01-20T01:10:38.525Z,-2.69
2023-01-20T01:13:05.916Z,-2.63
2023-01-20T01:15:32.817Z,-2.68
2023-01-20T01:18:00.232Z,-2.71
2023-01-20T01:20:28.627Z,-2.49
2023-01-20T01:22:55.925Z,-2.57
2023-01-20T01:25:22.912Z,-2.81
2023-01-20T01:27:49.524Z,-2.57
2023-01-20T01:30:16.237Z,-2.59
2023-01-20T01:32:42.838Z,-2.30
2023-01-20T01:35:09.555Z,-2.60
2023-01-20T01:37:36.191Z,-2.68
2023-01-20T01:40:02.947Z,-2.69
2023-01-20T01:42:29.808Z,-2.55
2023-01-20T01:45:12.314Z,-2.38
2023-01-20T01:47:48.104Z,-2.23
2023-01-20T01:50:29.875Z,-2.34
2023-01-20T01:52:57.143Z,-2.36
2023-01-20T01:55:29.303Z,-2.49
2023-01-20T01:57:58.559Z,-2.50
2023-01-20T02:00:25.337Z,-2.49
2023-01-20T02:02:52.601Z,-2.19
2023-01-20T02:05:20.396Z,-2.10
2023-01-20T02:07:48.035Z,-2.18
2023-01-20T02:10:15.779Z,-2.48
2023-01-20T02:12:47.334Z,-2.38
2023-01-20T02:15:16.624Z,-2.24
2023-01-20T02:18:21.150Z,-2.22
2023-01-20T02:20:50.654Z,-2.12
2023-01-20T02:23:36.718Z,-2.28
2023-01-20T02:26:28.792Z,-2.60
2023-01-20T02:29:04.537Z,-2.35
2023-01-20T02:32:08.049Z,-2.15
2023-01-20T02:34:49.901Z,-2.08
2023-01-20T02:37:24.959Z,-2.21
2023-01-20T02:40:12.663Z,-2.11
2023-01-20T02:42:46.919Z,-2.21
2023-01-20T02:45:21.669Z,-2.36
2023-01-20T02:47:54.078Z,-2.70
2023-01-20T02:50:36.852Z,-2.49
2023-01-20T02:53:04.636Z,-2.53
2023-01-20T02:55:34.189Z,-2.36
2023-01-20T02:58:08.561Z,-2.53
2023-01-20T03:00:44.927Z,-2.31
2023-01-20T03:03:15.905Z,-2.47
2023-01-20T03:06:05.897Z,-2.41
2023-01-20T03:08:33.517Z,-2.85
2023-01-20T03:11:05.976Z,-2.60
2023-01-20T03:13:46.150Z,-2.87
2023-01-20T03:16:17.186Z,-2.48
2023-01-20T03:18:45.842Z,-2.64
2023-01-20T03:21:13.671Z,-2.81
2023-01-20T03:23:44.388Z,-2.74
2023-01-20T03:26:14.034Z,-2.83
2023-01-20T03:28:45.055Z,-2.90
2023-01-20T03:31:20.967Z,-2.68
2023-01-20T03:33:50.259Z,-2.69
2023-01-20T03:36:18.574Z,-2.59
2023-01-20T03:38:46.152Z,-2.75
2023-01-20T03:41:24.808Z,-2.63
2023-01-20T03:43:51.339Z,-2.62
2023-01-20T03:46:32.328Z,-2.69
2023-01-20T03:49:12.265Z,-2.72
2023-01-20T03:51:55.688Z,-2.99
2023-01-20T03:54:30.857Z,-2.71
2023-01-20T03:57:07.003Z,-2.77
2023-01-20T03:59:37.389Z,-2.91
2023-01-20T04:02:07.491Z,-2.83
2023-01-20T04:04:38.389Z,-2.91
2023-01-20T04:07:11.128Z,-2.52
2023-01-20T04:09:44.093Z,-2.59
2023-01-20T04:12:10.867Z,-2.84
2023-01-20T04:14:37.657Z,-2.71
2023-01-20T04:17:05.084Z,-2.95
2023-01-20T04:19:31.831Z,-2.81
2023-01-20T04:21:58.335Z,-2.70
2023-01-20T04:24:37.868Z,-2.69
2023-01-20T04:27:04.458Z,-2.73
2023-01-20T04:29:31.064Z,-2.64
2023-01-20T04:32:02.695Z,-2.63
2023-01-20T04:34:29.654Z,-2.70
2023-01-20T04:36:56.305Z,-2.64
2023-01-20T04:39:23.039Z,-2.81
2023-01-20T04:41:49.798Z,-2.77
2023-01-20T04:44:16.355Z,-2.75
2023-01-20T04:46:43.038Z,-2.87
2023-01-20T04:49:12.488Z,-2.85
2023-01-20T04:51:39.168Z,-2.77
2023-01-20T04:54:05.832Z,-2.79
2023-01-20T04:56:32.705Z,-2.66
2023-01-20T04:58:59.445Z,-2.52
2023-01-20T05:01:26.172Z,-2.59
2023-01-20T05:03:52.781Z,-2.64
2023-01-20T05:06:19.381Z,-2.55
2023-01-20T05:08:46.072Z,-2.76
2023-01-20T05:11:12.719Z,-2.59
2023-01-20T05:13:40.255Z,-2.68
2023-01-20T05:16:08.545Z,-2.75
2023-01-20T05:18:35.245Z,-2.82
2023-01-20T05:21:03.863Z,-2.65
2023-01-20T05:23:30.771Z,-2.58
2023-01-20T05:25:57.416Z,-2.61
2023-01-20T05:28:24.174Z,-2.54
2023-01-20T05:30:51.786Z,-2.76
2023-01-20T05:33:18.529Z,-2.79
2023-01-20T05:35:45.107Z,-2.60
2023-01-20T05:38:11.709Z,-2.72
2023-01-20T05:40:38.539Z,-2.69
2023-01-20T05:43:05.140Z,-2.44
2023-01-20T05:45:32.443Z,-2.64
2023-01-20T05:48:00.003Z,-2.52
2023-01-20T05:50:28.059Z,-2.36
2023-01-20T05:52:55.048Z,-2.86
2023-01-20T05:55:21.911Z,-2.77
2023-01-20T05:57:48.510Z,-2.76
2023-01-20T06:00:15.457Z,-2.88
2023-01-20T06:02:42.154Z,-2.74
2023-01-20T06:05:11.600Z,-2.75
2023-01-20T06:07:38.278Z,-2.65
2023-01-20T06:10:05.323Z,-2.40
2023-01-20T06:12:34.594Z,-2.41
2023-01-20T06:15:01.369Z,-2.33
2023-01-20T06:17:27.966Z,-2.25
2023-01-20T06:19:54.564Z,-2.36
2023-01-20T06:22:21.509Z,-2.30
2023-01-20T06:24:48.101Z,-2.29
2023-01-20T06:27:14.723Z,-2.23
2023-01-20T06:29:41.296Z,-2.38
2023-01-20T06:32:07.938Z,-2.34
2023-01-20T06:34:34.548Z,-2.32
2023-01-20T06:37:02.197Z,-2.50
2023-01-20T06:39:31.595Z,-2.41
2023-01-20T06:41:59.487Z,-2.56
2023-01-20T06:44:28.733Z,-2.44
2023-01-20T06:46:59.389Z,-2.59
2023-01-20T06:49:26.515Z,-2.71
2023-01-20T06:51:53.211Z,-2.74
2023-01-20T06:54:19.887Z,-2.55
2023-01-20T06:56:46.465Z,-2.76
2023-01-20T06:59:13.316Z,-2.54
2023-01-20T07:01:40.738Z,-2.59
2023-01-20T07:04:08.260Z,-2.75
2023-01-20T07:06:39.637Z,-2.57
2023-01-20T07:09:09.393Z,-2.57
2023-01-20T07:11:39.513Z,-2.74
2023-01-20T07:14:06.895Z,-2.57
2023-01-20T07:16:34.456Z,-2.54
2023-01-20T07:19:01.235Z,-2.79
2023-01-20T07:21:28.210Z,-2.74
2023-01-20T07:23:55.042Z,-2.69
2023-01-20T07:26:24.307Z,-2.85
2023-01-20T07:28:51.963Z,-2.49
2023-01-20T07:31:29.071Z,-2.55
2023-01-20T07:33:56.346Z,-2.55
2023-01-20T07:36:23.301Z,-2.59
2023-01-20T07:38:50.581Z,-2.51
2023-01-20T07:41:19.771Z,-2.44
2023-01-20T07:43:49.589Z,-2.49
2023-01-20T07:46:16.701Z,-2.55
2023-01-20T07:48:43.494Z,-2.42
2023-01-20T07:51:13.199Z,-2.38
2023-01-20T07:53:42.197Z,-2.42
2023-01-20T07:56:17.103Z,-2.40
2023-01-20T07:58:47.512Z,-2.55
2023-01-20T08:01:25.786Z,-2.30
2023-01-20T08:03:52.945Z,-2.28
2023-01-20T08:06:22.316Z,-2.19
2023-01-20T08:08:49.222Z,-2.23
2023-01-20T08:11:17.709Z,-2.36
2023-01-20T08:13:44.408Z,-2.35
2023-01-20T08:16:13.876Z,-2.11
2023-01-20T08:18:40.943Z,-2.25
2023-01-20T08:21:16.094Z,-2.28
2023-01-20T08:23:42.703Z,-2.10
2023-01-20T08:26:09.790Z,-2.16
2023-01-20T08:28:36.800Z,-1.87
2023-01-20T08:31:10.025Z,-2.13
2023-01-20T08:33:37.495Z,-1.99
2023-01-20T08:36:06.657Z,-1.81
2023-01-20T08:38:33.966Z,-1.96
2023-01-20T08:41:00.582Z,-1.97
2023-01-20T08:43:27.436Z,-1.71
2023-01-20T08:46:07.053Z,-1.84
2023-01-20T08:48:34.889Z,-1.86
2023-01-20T08:51:24.649Z,-1.67
2023-01-20T08:53:51.967Z,-1.59
2023-01-20T08:56:19.413Z,-1.80
2023-01-20T08:58:46.608Z,-1.56
2023-01-20T09:01:17.584Z,-1.27
2023-01-20T09:03:58.956Z,-1.32
2023-01-20T09:06:31.710Z,-1.55
2023-01-20T09:08:58.307Z,-1.53
2023-01-20T09:11:27.876Z,-1.65
2023-01-20T09:13:54.909Z,-1.40
2023-01-20T09:16:21.545Z,-1.46
2023-01-20T09:18:48.162Z,-1.30
2023-01-20T09:21:14.787Z,-1.41
2023-01-20T09:23:42.867Z,-1.33
2023-01-20T09:26:10.101Z,-1.09
2023-01-20T09:28:36.715Z,-1.35
2023-01-20T09:31:08.696Z,-1.36
2023-01-20T09:33:38.240Z,-0.90
2023-01-20T09:36:10.528Z,-0.93
2023-01-20T09:38:56.907Z,-0.89
2023-01-20T09:41:49.193Z,-0.99
2023-01-20T09:44:21.733Z,-0.76
2023-01-20T09:47:22.575Z,-0.99
2023-01-20T09:50:35.882Z,-0.53
2023-01-20T09:53:05.262Z,-0.45
2023-01-20T09:55:40.966Z,-0.68
2023-01-20T09:58:16.885Z,-0.62
2023-01-20T10:00:49.630Z,-0.36
2023-01-20T10:03:25.138Z,-0.48
2023-01-20T10:05:54.667Z,-0.38
2023-01-20T10:08:28.911Z,-0.46
2023-01-20T10:11:02.912Z,-0.53
2023-01-20T10:13:33.705Z,-0.78
2023-01-20T10:16:06.551Z,-0.49
2023-01-20T10:18:56.688Z,-0.69
2023-01-20T10:21:36.706Z,-0.64
2023-01-20T10:24:30.965Z,-0.52
2023-01-20T10:27:04.959Z,-0.64
2023-01-20T10:29:38.726Z,-0.64
2023-01-20T10:32:24.764Z,-0.69
2023-01-20T10:34:56.578Z,-0.82
2023-01-20T10:37:23.993Z,-0.72
2023-01-20T10:40:01.691Z,-0.84
2023-01-20T10:42:28.849Z,-0.76
2023-01-20T10:44:56.012Z,-0.88
2023-01-20T10:47:41.234Z,-0.64
2023-01-20T10:50:16.654Z,-0.69
2023-01-20T10:53:04.191Z,-0.61
2023-01-20T10:55:42.862Z,-0.80
2023-01-20T10:58:21.211Z,-0.90
2023-01-20T11:00:49.846Z,-0.56
2023-01-20T11:03:20.262Z,-0.85
2023-01-20T11:05:48.515Z,-0.78
2023-01-20T11:08:28.151Z,-0.96
2023-01-20T11:10:59.263Z,-0.84
2023-01-20T11:13:25.984Z,-0.76
2023-01-20T11:16:02.662Z,-0.67
2023-01-20T11:18:31.258Z,-0.66
2023-01-20T11:21:03.390Z,-0.63
2023-01-20T11:23:36.605Z,-0.75
2023-01-20T11:26:10.047Z,-0.77
2023-01-20T11:29:06.002Z,-0.77
2023-01-20T11:31:39.703Z,-0.88
2023-01-20T11:34:26.672Z,-1.00
2023-01-20T11:37:05.471Z,-0.82
2023-01-20T11:39:36.841Z,-0.80
2023-01-20T11:42:25.063Z,-0.76
2023-01-20T11:45:19.764Z,-0.99
2023-01-20T11:48:00.603Z,-0.72
2023-01-20T11:50:32.119Z,-0.90
2023-01-20T11:53:12.432Z,-0.66
2023-01-20T11:55:52.117Z,-0.66
2023-01-20T11:58:22.337Z,-0.75
2023-01-20T12:00:52.353Z,-0.70
2023-01-20T12:03:30.004Z,-0.73
2023-01-20T12:06:11.851Z,-0.91
2023-01-20T12:08:55.354Z,-0.78
2023-01-20T12:11:30.408Z,-0.80
2023-01-20T12:14:22.912Z,-0.67
2023-01-20T12:17:10.913Z,-0.70
2023-01-20T12:19:48.468Z,-0.86
2023-01-20T12:22:24.208Z,-0.76
2023-01-20T12:25:09.232Z,-0.66
2023-01-20T12:27:43.819Z,-0.77
2023-01-20T12:30:50.191Z,-0.56
2023-01-20T12:33:30.197Z,-0.67
2023-01-20T12:36:26.910Z,-0.70
2023-01-20T12:39:19.088Z,-0.85
2023-01-20T12:42:05.372Z,-1.15
2023-01-20T12:44:44.427Z,-1.01
2023-01-20T12:47:43.112Z,-0.94
2023-01-20T12:50:31.246Z,-0.87
2023-01-20T12:53:04.075Z,-1.00
2023-01-20T12:56:15.950Z,-0.96
2023-01-20T12:59:06.328Z,-0.96
2023-01-20T13:01:38.748Z,-0.76
2023-01-20T13:04:36.009Z,-0.79
2023-01-20T13:07:24.701Z,-0.79
2023-01-20T13:10:46.360Z,-0.90
2023-01-20T13:13:55.905Z,-0.93
2023-01-20T13:16:42.678Z,-0.72
2023-01-20T13:19:29.550Z,-0.86
2023-01-20T13:22:07.743Z,-0.90
2023-01-20T13:24:35.281Z,-0.84
2023-01-20T13:27:02.728Z,-0.85
2023-01-20T13:29:51.090Z,-0.65
2023-01-20T13:32:26.841Z,-0.64
2023-01-20T13:34:53.810Z,-1.25
2023-01-20T13:37:25.515Z,-0.92
2023-01-20T13:39:54.504Z,-0.94
2023-01-20T13:42:48.906Z,-1.15
2023-01-20T13:45:19.622Z,-1.22
2023-01-20T13:48:11.159Z,-1.04
2023-01-20T13:50:39.572Z,-0.99
2023-01-20T13:53:12.301Z,-1.04
2023-01-20T13:55:43.909Z,-1.13
2023-01-20T13:58:22.697Z,-1.01
2023-01-20T14:00:51.582Z,-1.65
2023-01-20T14:03:24.134Z,-1.12
2023-01-20T14:05:52.946Z,-1.17
2023-01-20T14:08:20.938Z,-1.37
2023-01-20T14:10:47.831Z,-1.15
2023-01-20T14:13:22.925Z,-0.99
2023-01-20T14:15:53.130Z,-1.20
2023-01-20T14:18:22.946Z,-1.28
2023-01-20T14:21:03.482Z,-1.22
2023-01-20T14:23:30.458Z,-1.17
2023-01-20T14:25:59.522Z,-1.26
2023-01-20T14:28:26.168Z,-1.59
2023-01-20T14:31:12.800Z,-1.18
2023-01-20T14:33:47.772Z,-1.28
2023-01-20T14:36:17.244Z,-1.28
2023-01-20T14:38:57.351Z,-1.47
2023-01-20T14:41:33.868Z,-1.46
2023-01-20T14:44:01.985Z,-1.43
2023-01-20T14:46:31.755Z,-1.45
2023-01-20T14:48:58.875Z,-1.65
2023-01-20T14:51:25.967Z,-1.57
2023-01-20T14:54:30.163Z,-1.38
2023-01-20T14:56:58.586Z,-1.47
2023-01-20T14:59:25.950Z,-1.50
2023-01-20T15:01:55.457Z,-1.47
2023-01-20T15:04:22.424Z,-1.59
2023-01-20T15:06:58.009Z,-1.34
2023-01-20T15:09:30.971Z,-1.58
2023-01-20T15:12:35.520Z,-1.36
2023-01-20T15:15:35.553Z,-1.44
2023-01-20T15:18:16.895Z,-1.44
2023-01-20T15:20:47.017Z,-1.62
2023-01-20T15:23:19.943Z,-1.47
2023-01-20T15:25:47.794Z,-1.53
2023-01-20T15:28:24.840Z,-1.54
2023-01-20T15:30:53.204Z,-1.48
2023-01-20T15:33:21.664Z,-1.55
2023-01-20T15:35:56.946Z,-1.57
2023-01-20T15:38:24.107Z,-1.58
2023-01-20T15:40:50.765Z,-1.74
2023-01-20T15:43:18.926Z,-1.83
2023-01-20T15:45:45.995Z,-1.75
2023-01-20T15:48:21.754Z,-1.72
2023-01-20T15:50:48.913Z,-1.74
2023-01-20T15:53:15.849Z,-1.64
2023-01-20T15:55:48.913Z,-1.84
2023-01-20T15:58:25.189Z,-1.79
2023-01-20T16:00:52.503Z,-1.91
2023-01-20T16:03:19.230Z,-1.76
2023-01-20T16:05:48.610Z,-1.68
2023-01-20T16:08:20.962Z,-1.93
2023-01-20T16:10:47.613Z,-1.97
2023-01-20T16:13:16.801Z,-1.79
2023-01-20T16:15:43.613Z,-1.81
2023-01-20T16:18:15.831Z,-1.94
2023-01-20T16:20:44.758Z,-1.91
2023-01-20T16:23:12.753Z,-1.91
2023-01-20T16:25:40.370Z,-2.03
2023-01-20T16:28:24.350Z,-2.19
2023-01-20T16:30:53.985Z,-2.00
2023-01-20T16:33:25.986Z,-1.89
2023-01-20T16:35:56.408Z,-1.83
2023-01-20T16:38:25.269Z,-2.17
2023-01-20T16:41:05.756Z,-2.18
2023-01-20T16:43:32.339Z,-2.24
2023-01-20T16:45:59.040Z,-2.09
2023-01-20T16:48:26.053Z,-2.11
2023-01-20T16:50:52.972Z,-2.10
2023-01-20T16:53:20.196Z,-2.18
2023-01-20T16:55:48.073Z,-2.18
2023-01-20T16:58:16.452Z,-2.34
2023-01-20T17:00:43.089Z,-2.22
2023-01-20T17:03:09.726Z,-2.28
2023-01-20T17:05:36.536Z,-2.41
2023-01-20T17:08:03.692Z,-2.50
2023-01-20T17:10:32.473Z,-2.44
2023-01-20T17:12:59.464Z,-2.47
2023-01-20T17:15:27.151Z,-2.64
2023-01-20T17:17:58.037Z,-2.53
2023-01-20T17:20:28.267Z,-2.65
2023-01-20T17:22:58.015Z,-2.68
2023-01-20T17:25:24.808Z,-2.59
2023-01-20T17:27:51.448Z,-2.79
2023-01-20T17:30:18.462Z,-2.75
2023-01-20T17:32:47.522Z,-2.63
2023-01-20T17:35:15.265Z,-2.89
2023-01-20T17:37:42.416Z,-2.89
2023-01-20T17:40:13.549Z,-2.89
2023-01-20T17:42:40.303Z,-3.02
2023-01-20T17:45:07.451Z,-2.91
2023-01-20T17:47:34.035Z,-3.14
2023-01-20T17:50:00.706Z,-3.16
2023-01-20T17:52:28.415Z,-2.97
2023-01-20T17:54:55.030Z,-3.23
2023-01-20T17:57:26.807Z,-3.23
2023-01-20T17:59:53.947Z,-3.23
2023-01-20T18:02:22.380Z,-3.26
2023-01-20T18:04:49.155Z,-3.07
2023-01-20T18:07:15.889Z,-3.23
2023-01-20T18:09:43.108Z,-3.25
2023-01-20T18:12:09.991Z,-3.47
2023-01-20T18:14:36.633Z,-3.22
2023-01-20T18:17:03.280Z,-3.33
2023-01-20T18:19:30.412Z,-3.54
2023-01-20T18:21:57.111Z,-3.61
2023-01-20T18:24:23.844Z,-3.48
2023-01-20T18:26:50.563Z,-3.99
2023-01-20T18:29:18.399Z,-3.36
2023-01-20T18:31:50.627Z,-3.29
2023-01-20T18:34:18.379Z,-3.43
2023-01-20T18:36:46.266Z,-3.15
2023-01-20T18:39:22.476Z,-3.15
2023-01-20T18:41:50.220Z,-3.58
2023-01-20T18:44:20.487Z,-3.37
2023-01-20T18:46:47.199Z,-3.23
2023-01-20T18:49:15.554Z,-3.44
2023-01-20T18:51:42.921Z,-3.40
2023-01-20T18:54:17.532Z,-3.27
2023-01-20T18:56:44.987Z,-3.22
2023-01-20T18:59:11.964Z,-3.32
2023-01-20T19:01:42.127Z,-3.24
2023-01-20T19:04:12.096Z,-3.30
2023-01-20T19:06:44.271Z,-3.40
2023-01-20T19:09:11.844Z,-3.38
2023-01-20T19:11:40.000Z,-3.36
2023-01-20T19:14:11.056Z,-3.84
2023-01-20T19:16:42.188Z,-3.58
2023-01-20T19:19:10.877Z,-3.44
2023-01-20T19:21:37.944Z,-3.60
2023-01-20T19:24:11.899Z,-3.45
2023-01-20T19:26:39.249Z,-3.68
2023-01-20T19:29:10.558Z,-3.64
2023-01-20T19:31:58.587Z,-3.83
2023-01-20T19:34:26.776Z,-3.82
2023-01-20T19:36:53.519Z,-3.90
2023-01-20T19:39:20.438Z,-3.90
2023-01-20T19:41:47.122Z,-4.07
2023-01-20T19:44:13.982Z,-4.27
2023-01-20T19:46:41.026Z,-3.90
2023-01-20T19:49:07.835Z,-4.88
2023-01-20T19:51:34.708Z,-4.00
2023-01-20T19:54:01.630Z,-4.35
2023-01-20T19:56:31.183Z,-4.06
2023-01-20T19:58:58.217Z,-3.95
2023-01-20T20:01:31.141Z,-4.13
2023-01-20T20:03:59.221Z,-3.89
2023-01-20T20:06:31.938Z,-3.88
2023-01-20T20:09:01.231Z,-4.01
2023-01-20T20:11:29.111Z,-4.11
2023-01-20T20:14:00.421Z,-4.44
2023-01-20T20:16:29.003Z,-4.06
2023-01-20T20:18:56.463Z,-4.36
2023-01-20T20:21:23.836Z,-4.22
2023-01-20T20:23:55.805Z,-4.14
2023-01-20T20:26:24.341Z,-4.21
2023-01-20T20:28:51.224Z,-4.55
2023-01-20T20:31:18.390Z,-4.53
2023-01-20T20:33:48.531Z,-4.34
2023-01-20T20:36:15.723Z,-4.22
2023-01-20T20:38:44.652Z,-4.22
2023-01-20T20:41:11.310Z,-4.49
2023-01-20T20:43:38.603Z,-4.24
2023-01-20T20:46:06.889Z,-4.32
2023-01-20T20:48:34.080Z,-4.51
2023-01-20T20:51:15.689Z,-4.47
2023-01-20T20:53:44.789Z,-4.47
2023-01-20T20:56:14.125Z,-4.38
2023-01-20T20:59:00.055Z,-4.42
2023-01-20T21:01:29.372Z,-4.38
2023-01-20T21:03:57.858Z,-4.51
2023-01-20T21:06:24.939Z,-4.82
2023-01-20T21:08:52.083Z,-4.59
2023-01-20T21:11:20.314Z,-4.70
2023-01-20T21:13:49.380Z,-4.51
2023-01-20T21:16:20.882Z,-4.53
2023-01-20T21:18:49.641Z,-4.41
2023-01-20T21:21:22.192Z,-4.65
2023-01-20T21:23:54.179Z,-4.49
2023-01-20T21:26:21.417Z,-4.55
2023-01-20T21:28:49.409Z,-4.52
2023-01-20T21:31:20.752Z,-4.40
2023-01-20T21:33:49.363Z,-4.70
2023-01-20T21:36:16.113Z,-4.72
2023-01-20T21:38:46.619Z,-4.87
2023-01-20T21:41:14.735Z,-4.78
2023-01-20T21:44:01.999Z,-4.70
2023-01-20T21:46:39.873Z,-4.96
2023-01-20T21:49:28.609Z,-5.09
2023-01-20T21:52:14.949Z,-5.13
2023-01-20T21:54:42.078Z,-4.91
2023-01-20T21:57:10.118Z,-5.06
2023-01-20T21:59:37.061Z,-5.13
2023-01-20T22:02:04.157Z,-5.54
2023-01-20T22:04:32.073Z,-4.96
2023-01-20T22:06:58.835Z,-5.19
2023-01-20T22:09:25.486Z,-5.27
2023-01-20T22:11:52.176Z,-5.22
2023-01-20T22:14:21.221Z,-5.05
2023-01-20T22:16:48.109Z,-5.33
2023-01-20T22:19:15.008Z,-5.19
2023-01-20T22:21:41.704Z,-5.12
2023-01-20T22:24:09.654Z,-5.03
2023-01-20T22:26:36.378Z,-5.77
2023-01-20T22:29:03.120Z,-5.03
2023-01-20T22:31:31.318Z,-5.25
2023-01-20T22:33:59.235Z,-5.22
2023-01-20T22:36:26.388Z,-4.88
2023-01-20T22:38:54.030Z,-4.97
2023-01-20T22:41:21.567Z,-4.87
2023-01-20T22:43:50.713Z,-4.98
2023-01-20T22:46:19.524Z,-5.11
2023-01-20T22:48:46.952Z,-5.27
2023-01-20T22:51:19.413Z,-5.36
2023-01-20T22:53:46.523Z,-5.35
2023-01-20T22:56:24.963Z,-5.12
2023-01-20T22:58:52.041Z,-5.34
2023-01-20T23:01:21.759Z,-5.19
2023-01-20T23:03:48.871Z,-5.28
2023-01-20T23:06:15.551Z,-5.47
2023-01-20T23:08:42.229Z,-5.71
2023-01-20T23:11:12.147Z,-5.22
2023-01-20T23:13:39.030Z,-5.18
2023-01-20T23:16:16.622Z,-5.64
2023-01-20T23:18:44.595Z,-5.32
2023-01-20T23:21:11.657Z,-5.27
2023-01-20T23:23:39.006Z,-5.24
2023-01-20T23:26:09.942Z,-5.24
2023-01-20T23:28:36.801Z,-5.46
2023-01-20T23:31:06.686Z,-5.26
2023-01-20T23:33:34.068Z,-5.48
2023-01-20T23:36:13.040Z,-5.43
2023-01-20T23:38:40.410Z,-5.51
2023-01-20T23:41:07.251Z,-5.62
2023-01-20T23:43:34.178Z,-5.60
2023-01-20T23:46:03.331Z,-5.43
2023-01-20T23:48:30.596Z,-5.36
2023-01-20T23:50:59.851Z,-5.37
2023-01-20T23:53:28.561Z,-5.32
2023-01-20T23:56:06.565Z,-5.43
2023-01-20T23:58:33.775Z,-5.40
